Time;durP1;ratioP1;P1;durP2;ratioP2;P2;SDS_P1;SDS_P2;PMS_P1;PMS_P2;Temp;Humidity;BMP_temperature;BMP_pressure;BME280_temperature;BME280_humidity;BME280_pressure;Samples;Min_cycle;Max_cycle;Signal;HPM_P1;HPM_P2
2022/06/12 19:55:52;;;;;;;;;0.33;0.00;;;;;-146.67;25.86;74242.38;5117113;27;61988;-81
2022/06/12 19:58:17;;;;;;;;;0.00;0.00;;;;;-146.67;25.33;74204.44;5096993;27;62482;-80
2022/06/12 20:00:43;;;;;;;;;0.00;0.00;;;;;-146.67;25.29;74208.44;5098644;27;61941;-81
2022/06/12 20:03:10;;;;;;;;;0.00;0.00;;;;;-146.67;25.32;74216.44;5097636;27;61968;-82
2022/06/12 20:08:21;;;;;;;;;0.00;0.00;;;;;-146.67;25.39;74224.41;5096773;27;62248;-80
2022/06/12 20:10:46;;;;;;;;;0.00;0.00;;;;;-146.67;25.53;74244.38;5095516;27;61955;-81
2022/06/12 20:13:13;;;;;;;;;0.00;0.00;;;;;-146.67;25.66;74278.31;5094015;27;63592;-81
2022/06/12 20:15:41;;;;;;;;;0.33;0.00;;;;;-146.67;25.88;74306.25;5096464;27;62205;-81
2022/06/12 20:18:15;;;;;;;;;0.00;0.00;;;;;-146.67;25.71;74332.22;5098012;27;62416;-80
2022/06/12 20:21:08;;;;;;;;;0.00;0.00;;;;;-146.67;26.13;74346.19;5097543;27;62053;-80
2022/06/12 20:23:38;;;;;;;;;0.00;0.00;;;;;-146.67;26.39;74390.09;5095059;27;63576;-81
2022/06/12 20:26:04;;;;;;;;;0.00;0.00;;;;;-146.67;26.31;74376.13;5096980;27;62145;-80
2022/06/12 20:28:30;;;;;;;;;2.00;0.00;;;;;-146.67;26.11;74382.13;5097429;27;61843;-80
2022/06/12 20:31:02;;;;;;;;;0.00;0.00;;;;;-146.67;26.59;74384.13;5097318;27;62245;-81
2022/06/12 20:33:32;;;;;;;;;0.00;0.00;;;;;-146.67;26.18;74374.13;5096649;27;62228;-80
2022/06/12 20:35:58;;;;;;;;;0.00;0.00;;;;;-146.67;26.61;74382.13;5097312;27;61954;-80
2022/06/12 20:38:25;;;;;;;;;0.00;0.00;;;;;-146.67;26.17;74386.13;5094069;27;61967;-80
2022/06/12 20:40:57;;;;;;;;;1.50;0.00;;;;;-146.67;26.20;74364.16;5095311;27;62317;-81
2022/06/12 20:43:24;;;;;;;;;0.50;0.00;;;;;-146.67;26.17;74390.09;5097055;27;62026;-81
2022/06/12 20:45:50;;;;;;;;;0.00;0.00;;;;;-146.67;26.75;74432.03;5094788;27;61798;-81
2022/06/12 20:48:17;;;;;;;;;0.00;0.00;;;;;-146.67;26.42;74432.03;5097504;27;61887;-80
2022/06/12 20:50:43;;;;;;;;;0.00;0.00;;;;;-146.67;26.35;74434.03;5093986;27;61935;-81
2022/06/12 20:53:09;;;;;;;;;1.50;0.00;;;;;-146.67;26.54;74448.00;5095108;27;62800;-80
2022/06/12 20:55:35;;;;;;;;;0.00;0.00;;;;;-146.67;26.82;74446.00;5094830;27;62637;-80
2022/06/12 20:58:00;;;;;;;;;0.00;0.00;;;;;-146.67;26.61;74456.00;5096152;27;61905;-81
2022/06/12 21:00:26;;;;;;;;;0.00;0.00;;;;;-146.67;26.77;74457.97;5098031;27;61906;-81
2022/06/12 21:02:52;;;;;;;;;1.00;0.00;;;;;-146.67;26.68;74463.97;5097069;27;62604;-81
2022/06/12 21:05:17;;;;;;;;;0.00;0.00;;;;;-146.67;26.77;74456.00;5092699;27;62003;-81
2022/06/12 21:07:42;;;;;;;;;0.00;0.00;;;;;-146.67;26.50;74459.97;5105248;27;61794;-81
2022/06/12 21:10:08;;;;;;;;;0.00;0.00;;;;;-146.67;26.38;74465.97;5082528;28;62162;-81
2022/06/12 21:12:34;;;;;;;;;0.00;0.00;;;;;-146.67;26.42;74475.94;5082358;27;62764;-80
2022/06/12 21:15:00;;;;;;;;;0.00;0.00;;;;;-146.67;26.22;74493.91;5082651;28;61822;-80
2022/06/12 21:17:28;;;;;;;;;1.00;0.00;;;;;-146.67;26.24;74483.94;5083930;27;61741;-81
2022/06/12 21:19:54;;;;;;;;;0.00;0.00;;;;;-146.67;26.45;74489.94;5084178;27;61819;-80
2022/06/12 21:22:19;;;;;;;;;2.00;0.00;;;;;-146.67;26.42;74509.88;5082893;27;62219;-81
2022/06/12 21:24:44;;;;;;;;;0.00;0.00;;;;;-146.67;26.65;74511.88;5082472;28;61817;-81
2022/06/12 21:27:10;;;;;;;;;0.00;0.00;;;;;-146.67;26.54;74509.88;5082891;27;62473;-78
2022/06/12 21:29:37;;;;;;;;;2.25;0.00;;;;;-146.67;26.42;74505.91;5083635;27;61821;-82
2022/06/12 21:32:03;;;;;;;;;0.00;0.00;;;;;-146.67;26.79;74507.91;5081232;28;63849;-81
2022/06/12 21:34:28;;;;;;;;;0.00;0.00;;;;;-146.67;26.70;74499.91;5090252;27;61973;-81
2022/06/12 21:36:54;;;;;;;;;2.00;0.75;;;;;-146.67;26.84;74503.91;5083868;27;62055;-81
2022/06/12 21:39:19;;;;;;;;;0.50;0.00;;;;;-146.67;26.65;74491.94;5083286;28;61967;-81
2022/06/12 21:41:45;;;;;;;;;0.00;0.00;;;;;-146.67;26.70;74497.91;5080169;28;64749;-81
2022/06/12 21:44:10;;;;;;;;;1.00;0.00;;;;;-146.67;26.81;74513.88;5082030;28;62048;-81
2022/06/12 21:46:36;;;;;;;;;0.00;0.00;;;;;-146.67;26.98;74481.94;5082092;28;61892;-81
2022/06/12 21:49:01;;;;;;;;;1.00;0.00;;;;;-146.67;26.85;74491.94;5082001;28;62193;-81
2022/06/12 21:56:55;;;;;;;;;0.00;0.00;;;;;-146.67;27.14;74537.84;5083846;28;62132;-81
2022/06/12 21:59:20;;;;;;;;;2.50;1.00;;;;;-146.67;27.11;74545.81;5083617;27;62115;-81
2022/06/12 22:01:47;;;;;;;;;0.00;0.00;;;;;-146.67;27.16;74503.91;5082488;27;61837;-81
2022/06/12 22:04:13;;;;;;;;;0.00;0.00;;;;;-146.67;27.16;74537.84;5083547;27;62060;-81
2022/06/12 22:06:39;;;;;;;;;0.00;0.00;;;;;-146.67;27.27;74567.78;5083636;27;61829;-81
2022/06/12 22:09:04;;;;;;;;;1.50;1.00;;;;;-146.67;27.11;74567.78;5083357;27;61936;-81
2022/06/12 22:11:30;;;;;;;;;0.00;0.00;;;;;-146.67;27.23;74559.81;5082507;28;61980;-81
2022/06/12 22:13:55;;;;;;;;;0.00;0.00;;;;;-146.67;26.97;74555.81;5082155;28;62087;-81
2022/06/12 22:16:21;;;;;;;;;0.00;0.00;;;;;-146.67;27.58;74603.72;5083609;27;61770;-81
2022/06/12 22:18:46;;;;;;;;;1.00;1.00;;;;;-146.67;27.32;74611.72;5081079;28;61984;-81
2022/06/12 22:21:12;;;;;;;;;0.50;0.25;;;;;-146.67;27.59;74605.72;5082780;27;63106;-81
2022/06/12 22:23:37;;;;;;;;;0.00;0.00;;;;;-146.67;27.56;74621.69;5083229;27;61818;-81
2022/06/12 22:26:04;;;;;;;;;0.50;0.25;;;;;-146.67;27.55;74617.69;5083397;27;62066;-81
2022/06/12 22:28:30;;;;;;;;;0.00;0.00;;;;;-146.67;27.68;74611.72;5099063;27;61835;-81
2022/06/12 22:30:55;;;;;;;;;0.00;0.00;;;;;-146.67;27.79;74623.69;5081461;28;64045;-81
2022/06/12 22:33:21;;;;;;;;;0.25;0.25;;;;;-146.67;27.64;74621.69;5082886;27;61836;-81
2022/06/12 22:35:47;;;;;;;;;0.00;0.00;;;;;-146.67;27.71;74623.69;5081885;28;61849;-81
2022/06/12 22:38:12;;;;;;;;;1.00;1.00;;;;;-146.67;27.42;74613.72;5083242;27;62131;-80
2022/06/12 22:40:38;;;;;;;;;0.00;0.00;;;;;-146.67;27.77;74635.66;5082317;27;63090;-81
2022/06/12 22:43:04;;;;;;;;;0.00;0.00;;;;;-146.67;27.66;74651.66;5081653;28;61805;-81
2022/06/12 22:45:31;;;;;;;;;2.00;0.00;;;;;-146.67;27.70;74635.66;5083090;28;61833;-81
2022/06/12 22:47:57;;;;;;;;;0.00;0.00;;;;;-146.67;27.66;74679.59;5083036;28;61837;-81
2022/06/12 22:50:23;;;;;;;;;0.00;0.00;;;;;-146.67;28.05;74677.59;5080942;28;65032;-81
2022/06/12 22:52:48;;;;;;;;;0.00;0.00;;;;;-146.67;27.87;74681.59;5083014;28;61785;-81
2022/06/12 22:55:15;;;;;;;;;1.00;0.00;;;;;-146.67;27.80;74677.59;5081160;28;62095;-81
2022/06/12 22:57:40;;;;;;;;;1.50;0.75;;;;;-146.67;27.69;74677.59;5081825;28;61896;-81
2022/06/12 23:00:06;;;;;;;;;0.00;0.00;;;;;-146.67;27.90;74679.59;5082399;28;61922;-82
2022/06/12 23:02:32;;;;;;;;;0.00;0.00;;;;;-146.67;27.96;74701.56;5082416;28;62329;-81
2022/06/12 23:04:57;;;;;;;;;2.00;0.00;;;;;-146.67;28.18;74713.53;5083305;28;62260;-81
2022/06/12 23:07:22;;;;;;;;;1.00;1.00;;;;;-146.67;28.28;74731.50;5082770;28;62125;-81
2022/06/12 23:09:51;;;;;;;;;0.00;0.00;;;;;-146.67;28.27;74719.53;5082203;28;61906;-81
2022/06/12 23:12:17;;;;;;;;;1.00;1.00;;;;;-146.67;28.53;74731.50;5082686;28;61906;-81
2022/06/12 23:14:42;;;;;;;;;0.75;0.75;;;;;-146.67;28.55;74745.47;5082699;28;62305;-81
2022/06/12 23:17:08;;;;;;;;;1.75;0.75;;;;;-146.67;28.69;74745.47;5081221;28;62074;-81
2022/06/12 23:19:34;;;;;;;;;0.75;0.75;;;;;-146.67;28.59;74731.50;5082042;28;61839;-81
2022/06/12 23:22:00;;;;;;;;;0.00;0.00;;;;;-146.67;28.75;74739.50;5082447;28;61961;-81
2022/06/12 23:24:25;;;;;;;;;2.00;1.00;;;;;-146.67;28.73;74731.50;5080861;28;61695;-81
2022/06/12 23:26:51;;;;;;;;;1.00;1.00;;;;;-146.67;28.75;74745.47;5082529;28;61921;-82
2022/06/12 23:29:16;;;;;;;;;2.00;1.00;;;;;-146.67;28.81;74743.47;5080235;28;65047;-81
2022/06/12 23:31:43;;;;;;;;;0.00;0.00;;;;;-146.67;28.50;74735.50;5081863;28;61846;-81
2022/06/12 23:34:11;;;;;;;;;2.00;1.00;;;;;-146.67;29.13;74793.41;5081177;28;61841;-82
2022/06/12 23:36:37;;;;;;;;;1.00;1.00;;;;;-146.67;29.05;74789.41;5082215;28;61782;-81
2022/06/12 23:39:04;;;;;;;;;2.00;0.00;;;;;-146.67;29.33;74797.38;5081675;28;61855;-81
2022/06/12 23:41:30;;;;;;;;;1.00;0.00;;;;;-146.67;29.34;74807.38;5081668;27;61680;-81
2022/06/12 23:43:55;;;;;;;;;0.25;0.25;;;;;-146.67;29.41;74813.38;5081012;28;61779;-81
2022/06/12 23:46:28;;;;;;;;;0.25;0.25;;;;;-146.67;29.36;74827.34;5082274;27;61950;-81
2022/06/12 23:48:57;;;;;;;;;0.00;0.00;;;;;-146.67;29.38;74827.34;5080102;28;63623;-81
2022/06/12 23:51:24;;;;;;;;;0.50;0.50;;;;;-146.67;29.69;74849.31;5082254;27;62075;-81
2022/06/12 23:53:50;;;;;;;;;0.50;0.00;;;;;-146.67;29.66;74855.28;5081449;27;61738;-81
2022/06/12 23:56:19;;;;;;;;;1.00;1.00;;;;;-146.67;29.75;74847.31;5081972;27;62083;-81
2022/06/12 23:58:45;;;;;;;;;1.75;0.75;;;;;-146.67;29.98;74843.31;5081380;27;61858;-81
